Time;durP1;ratioP1;P1;durP2;ratioP2;P2;SDS_P1;SDS_P2;PMS_P1;PMS_P2;Temp;Humidity;BMP_temperature;BMP_pressure;BME280_temperature;BME280_humidity;BME280_pressure;Samples;Min_cycle;Max_cycle;Signal;HPM_P1;HPM_P2
2023/02/06 00:01:49;;;;;;;30.75;19.45;;;3.30;99.90;;;;;;486534;244;27929;-77
2023/02/06 00:03:51;;;;;;;29.90;20.02;;;3.20;99.90;;;;;;486525;244;27442;-75
2023/02/06 00:05:52;;;;;;;29.90;19.92;;;3.10;99.90;;;;;;486496;244;27545;-76
2023/02/06 00:07:53;;;;;;;28.27;19.17;;;3.10;99.90;;;;;;486482;244;27521;-76
2023/02/06 00:09:54;;;;;;;26.92;17.95;;;3.10;99.90;;;;;;486537;244;27411;-76
2023/02/06 00:11:56;;;;;;;24.50;17.52;;;3.10;99.90;;;;;;486521;244;27529;-78
2023/02/06 00:13:57;;;;;;;25.88;16.65;;;3.10;99.90;;;;;;486473;244;27396;-76
2023/02/06 00:15:58;;;;;;;28.02;18.75;;;3.10;99.90;;;;;;486486;244;27943;-77
2023/02/06 00:17:59;;;;;;;30.30;19.02;;;3.10;99.90;;;;;;486526;244;27920;-77
2023/02/06 00:20:01;;;;;;;25.40;17.95;;;3.10;99.90;;;;;;486538;244;27414;-76
2023/02/06 00:22:02;;;;;;;22.87;15.95;;;3.10;99.90;;;;;;486484;244;27451;-76
2023/02/06 00:24:03;;;;;;;21.50;15.10;;;3.10;99.90;;;;;;486502;244;27387;-76
2023/02/06 00:26:05;;;;;;;22.20;16.20;;;3.10;99.90;;;;;;486492;244;27636;-76
2023/02/06 00:28:06;;;;;;;16.02;12.88;;;3.10;99.90;;;;;;486546;244;27445;-76
2023/02/06 00:30:07;;;;;;;17.45;12.77;;;3.20;99.90;;;;;;486526;244;27954;-76
2023/02/06 00:32:08;;;;;;;19.15;14.20;;;3.10;99.90;;;;;;486533;244;27968;-76
2023/02/06 00:34:10;;;;;;;16.85;14.15;;;3.10;99.90;;;;;;486497;244;27491;-75
2023/02/06 00:36:11;;;;;;;17.08;13.18;;;3.20;99.90;;;;;;486512;244;27453;-77
2023/02/06 00:38:12;;;;;;;16.15;13.00;;;3.20;99.90;;;;;;486546;244;27430;-76
2023/02/06 00:40:13;;;;;;;17.00;13.65;;;3.20;99.90;;;;;;486533;244;27394;-76
2023/02/06 00:42:15;;;;;;;16.95;13.30;;;3.20;99.90;;;;;;486524;244;27512;-75
2023/02/06 00:44:16;;;;;;;18.02;13.20;;;3.10;99.90;;;;;;486487;244;27403;-76
2023/02/06 00:46:17;;;;;;;19.85;14.70;;;3.10;99.90;;;;;;486559;244;27925;-76
2023/02/06 00:48:18;;;;;;;19.83;13.32;;;3.00;99.90;;;;;;486578;244;27917;-77
2023/02/06 00:50:20;;;;;;;16.23;12.02;;;3.00;99.90;;;;;;486543;244;27410;-76
2023/02/06 00:52:21;;;;;;;15.38;12.37;;;3.00;99.90;;;;;;486553;244;27449;-76
2023/02/06 00:54:22;;;;;;;17.20;12.45;;;3.00;99.90;;;;;;486548;244;27474;-76
2023/02/06 00:56:23;;;;;;;12.90;11.02;;;2.90;99.90;;;;;;486550;244;27497;-76
2023/02/06 00:58:25;;;;;;;12.80;9.70;;;3.00;99.90;;;;;;486524;244;27450;-77
2023/02/06 01:00:26;;;;;;;9.63;8.10;;;2.90;99.90;;;;;;486495;244;27442;-76
2023/02/06 01:02:27;;;;;;;11.40;9.55;;;3.00;99.90;;;;;;486376;244;28018;-76
2023/02/06 01:04:28;;;;;;;10.82;8.70;;;2.90;99.90;;;;;;486531;244;27922;-76
2023/02/06 01:06:30;;;;;;;11.68;8.95;;;2.90;99.90;;;;;;486537;244;27854;-75
2023/02/06 01:08:31;;;;;;;11.93;8.45;;;2.90;99.90;;;;;;486525;244;27433;-76
2023/02/06 01:10:32;;;;;;;12.80;9.82;;;2.90;99.90;;;;;;486495;244;27454;-76
2023/02/06 01:12:33;;;;;;;9.80;8.30;;;2.80;99.90;;;;;;486502;244;27528;-75
2023/02/06 01:14:35;;;;;;;11.30;8.25;;;2.80;99.90;;;;;;486465;244;27498;-77
2023/02/06 01:16:36;;;;;;;11.02;8.73;;;2.90;99.90;;;;;;486521;244;27538;-76
2023/02/06 01:18:37;;;;;;;10.98;8.70;;;2.80;99.90;;;;;;486562;244;27525;-77
2023/02/06 01:20:38;;;;;;;8.60;7.47;;;2.80;99.90;;;;;;486533;244;27410;-77
2023/02/06 01:22:40;;;;;;;9.80;8.15;;;2.80;99.90;;;;;;486493;244;27504;-76
2023/02/06 01:24:41;;;;;;;9.35;7.78;;;2.80;99.90;;;;;;486480;244;27938;-76
2023/02/06 01:26:42;;;;;;;8.98;7.65;;;2.80;99.90;;;;;;486525;244;27946;-77
2023/02/06 01:28:43;;;;;;;9.57;7.57;;;2.80;99.90;;;;;;486533;244;29019;-77
2023/02/06 01:30:45;;;;;;;9.60;7.93;;;2.80;99.90;;;;;;486524;243;27871;-76
2023/02/06 01:32:46;;;;;;;8.52;7.62;;;2.80;99.90;;;;;;486501;244;27438;-77
2023/02/06 01:34:47;;;;;;;9.10;7.25;;;2.80;99.90;;;;;;486446;244;27512;-76
2023/02/06 01:36:48;;;;;;;8.95;7.55;;;2.90;99.90;;;;;;486433;244;27546;-75
2023/02/06 01:38:50;;;;;;;10.93;8.73;;;2.80;99.90;;;;;;486491;244;27452;-76
2023/02/06 01:40:51;;;;;;;9.70;8.15;;;2.80;99.90;;;;;;486382;244;27548;-76
2023/02/06 01:42:52;;;;;;;8.70;7.18;;;2.70;99.90;;;;;;486458;244;27567;-76
2023/02/06 01:44:53;;;;;;;10.27;8.13;;;2.80;99.90;;;;;;486464;244;27489;-76
2023/02/06 01:46:55;;;;;;;11.98;8.60;;;2.80;99.90;;;;;;486490;244;27466;-76
2023/02/06 01:48:56;;;;;;;9.45;7.50;;;2.80;99.90;;;;;;486536;244;28073;-76
2023/02/06 01:50:57;;;;;;;9.48;7.68;;;2.80;99.90;;;;;;486508;244;28054;-76
2023/02/06 01:52:58;;;;;;;10.63;7.70;;;2.80;99.90;;;;;;486528;244;27913;-77
2023/02/06 01:55:00;;;;;;;9.73;8.23;;;2.70;99.90;;;;;;486500;244;28961;-76
2023/02/06 01:57:01;;;;;;;9.25;7.30;;;2.80;99.90;;;;;;486497;244;27426;-76
2023/02/06 01:59:04;;;;;;;8.57;7.68;;;2.80;99.90;;;;;;486339;243;27426;-76
2023/02/06 02:01:03;;;;;;;8.85;6.97;;;2.80;99.90;;;;;;486486;244;27403;-76
2023/02/06 02:03:05;;;;;;;9.13;7.40;;;2.80;99.90;;;;;;486542;244;27510;-77
2023/02/06 02:05:06;;;;;;;10.50;8.25;;;2.80;99.90;;;;;;486524;244;27399;-76
2023/02/06 02:07:07;;;;;;;10.85;8.15;;;2.80;99.90;;;;;;486503;244;27589;-76
2023/02/06 02:09:08;;;;;;;9.18;6.90;;;2.80;99.90;;;;;;486324;244;27505;-76
2023/02/06 02:11:10;;;;;;;8.57;6.97;;;2.80;99.90;;;;;;486521;244;27406;-76
2023/02/06 02:13:11;;;;;;;9.55;7.20;;;2.80;99.90;;;;;;486507;244;27545;-76
2023/02/06 02:15:12;;;;;;;10.18;6.65;;;2.70;99.90;;;;;;486473;244;27878;-76
2023/02/06 02:17:13;;;;;;;8.30;7.05;;;2.70;99.90;;;;;;486484;244;27970;-75
2023/02/06 02:19:15;;;;;;;7.18;6.20;;;2.70;99.90;;;;;;486505;244;28623;-76
2023/02/06 02:21:16;;;;;;;9.75;7.10;;;2.70;99.90;;;;;;486542;244;27413;-76
2023/02/06 02:23:17;;;;;;;9.02;6.93;;;2.70;99.90;;;;;;486482;244;27521;-76
2023/02/06 02:25:18;;;;;;;7.45;6.55;;;2.70;99.90;;;;;;486516;244;27394;-76
2023/02/06 02:27:20;;;;;;;7.95;6.25;;;2.70;99.90;;;;;;486473;244;27472;-76
2023/02/06 02:29:21;;;;;;;9.65;8.05;;;2.70;99.90;;;;;;486493;244;27450;-76
2023/02/06 02:31:22;;;;;;;9.25;8.27;;;2.70;99.90;;;;;;486550;244;27522;-77
2023/02/06 02:33:23;;;;;;;10.07;8.20;;;2.70;99.90;;;;;;486438;244;27453;-76
2023/02/06 02:35:25;;;;;;;11.00;7.68;;;2.60;99.90;;;;;;486508;244;27414;-75
2023/02/06 02:37:26;;;;;;;9.82;7.30;;;2.70;99.90;;;;;;486463;243;27435;-76
2023/02/06 02:39:27;;;;;;;9.40;7.90;;;2.70;99.90;;;;;;486468;244;27506;-76
2023/02/06 02:41:28;;;;;;;9.77;7.47;;;2.70;99.90;;;;;;486528;244;27970;-76
2023/02/06 02:43:30;;;;;;;8.77;6.57;;;2.70;99.90;;;;;;486532;244;28065;-76
2023/02/06 02:45:31;;;;;;;9.23;8.00;;;2.70;99.90;;;;;;486519;244;27925;-76
2023/02/06 02:47:32;;;;;;;9.10;6.72;;;2.70;99.90;;;;;;486496;244;27957;-76
2023/02/06 02:49:33;;;;;;;7.95;6.68;;;2.70;99.90;;;;;;486503;244;27391;-77
2023/02/06 02:51:35;;;;;;;9.60;7.40;;;2.80;99.90;;;;;;486525;244;27405;-76
2023/02/06 02:53:36;;;;;;;8.13;6.65;;;2.70;99.90;;;;;;486500;244;27437;-77
2023/02/06 02:55:37;;;;;;;9.23;6.40;;;2.70;99.90;;;;;;486516;244;27548;-76
2023/02/06 02:57:38;;;;;;;8.05;6.45;;;2.60;99.90;;;;;;486509;244;27494;-77
2023/02/06 02:59:40;;;;;;;9.13;7.15;;;2.60;99.90;;;;;;486469;244;27523;-76
2023/02/06 03:01:41;;;;;;;8.23;7.05;;;2.60;99.90;;;;;;486527;244;27458;-76
2023/02/06 03:03:43;;;;;;;8.95;7.30;;;2.60;99.90;;;;;;486536;244;27434;-76
2023/02/06 03:05:43;;;;;;;11.88;7.37;;;2.50;99.90;;;;;;486460;244;27402;-76
2023/02/06 03:07:45;;;;;;;9.35;7.35;;;2.50;99.90;;;;;;486543;244;28014;-77
2023/02/06 03:09:46;;;;;;;8.93;7.12;;;2.50;99.90;;;;;;486531;244;27951;-76
2023/02/06 03:11:47;;;;;;;8.48;7.20;;;2.50;99.90;;;;;;486547;244;29020;-76
2023/02/06 03:13:48;;;;;;;8.70;6.87;;;2.50;99.90;;;;;;486592;244;28025;-77
2023/02/06 03:15:50;;;;;;;9.30;6.70;;;2.50;99.90;;;;;;486575;244;27406;-76
2023/02/06 03:17:51;;;;;;;11.02;7.43;;;2.50;99.90;;;;;;486511;244;27441;-77
2023/02/06 03:19:52;;;;;;;9.65;7.90;;;2.40;99.90;;;;;;486519;244;27494;-75
2023/02/06 03:21:53;;;;;;;7.30;6.30;;;2.40;99.90;;;;;;486502;244;27517;-76
2023/02/06 03:23:55;;;;;;;8.20;6.87;;;2.40;99.90;;;;;;486550;244;27815;-76
2023/02/06 03:25:56;;;;;;;8.20;6.10;;;2.40;99.90;;;;;;486537;244;27466;-76
2023/02/06 03:27:57;;;;;;;7.30;6.03;;;2.40;99.90;;;;;;486545;244;27536;-76
2023/02/06 03:29:58;;;;;;;8.80;6.30;;;2.40;99.90;;;;;;486502;244;27478;-76
2023/02/06 03:32:00;;;;;;;7.70;6.07;;;2.40;99.90;;;;;;486513;244;27454;-76
2023/02/06 03:34:01;;;;;;;8.20;6.47;;;2.40;99.90;;;;;;486537;244;27917;-76
2023/02/06 03:36:04;;;;;;;7.82;6.10;;;2.40;99.90;;;;;;486403;244;27969;-76
2023/02/06 03:38:03;;;;;;;7.22;5.97;;;2.50;99.90;;;;;;486450;244;27964;-76
2023/02/06 03:40:05;;;;;;;7.80;6.20;;;2.40;99.90;;;;;;486504;244;27870;-75
2023/02/06 03:42:06;;;;;;;7.32;6.15;;;2.50;99.90;;;;;;486519;244;27493;-76
2023/02/06 03:44:07;;;;;;;8.40;6.20;;;2.40;99.90;;;;;;486508;244;27510;-76
2023/02/06 03:46:11;;;;;;;9.00;6.15;;;2.40;99.90;;;;;;486548;244;27491;-77
2023/02/06 03:48:10;;;;;;;7.12;6.12;;;2.30;99.90;;;;;;486408;244;27462;-77
2023/02/06 03:50:11;;;;;;;7.25;5.90;;;2.30;99.90;;;;;;486489;244;27474;-75
2023/02/06 03:52:12;;;;;;;7.18;6.30;;;2.30;99.90;;;;;;486517;244;27556;-76
2023/02/06 03:54:13;;;;;;;7.20;5.65;;;2.30;99.90;;;;;;486530;244;27442;-76
2023/02/06 03:56:15;;;;;;;7.87;6.62;;;2.30;99.90;;;;;;486547;244;27413;-76
2023/02/06 03:58:16;;;;;;;8.35;6.55;;;2.30;99.90;;;;;;486539;244;27522;-77
2023/02/06 04:00:17;;;;;;;8.25;6.30;;;2.40;99.90;;;;;;486520;244;27442;-76
2023/02/06 04:02:19;;;;;;;8.10;7.00;;;2.30;99.90;;;;;;486507;244;27487;-76
2023/02/06 04:04:20;;;;;;;7.93;6.62;;;2.30;99.90;;;;;;486351;244;28750;-76
2023/02/06 04:06:21;;;;;;;7.90;6.00;;;2.30;99.90;;;;;;486527;244;27930;-76
2023/02/06 04:08:22;;;;;;;6.50;5.80;;;2.30;99.90;;;;;;486548;244;27965;-76
2023/02/06 04:10:24;;;;;;;6.28;5.55;;;2.30;99.90;;;;;;486524;244;27391;-76
2023/02/06 04:12:25;;;;;;;8.57;6.12;;;2.20;99.90;;;;;;486471;244;27503;-76
2023/02/06 04:14:26;;;;;;;8.65;6.10;;;2.30;99.90;;;;;;486556;244;27473;-76
2023/02/06 04:16:27;;;;;;;6.18;5.32;;;2.20;99.90;;;;;;486459;244;27433;-76
2023/02/06 04:18:29;;;;;;;7.12;5.78;;;2.30;99.90;;;;;;486591;244;27478;-76
2023/02/06 04:20:30;;;;;;;5.05;4.55;;;2.40;99.90;;;;;;486540;244;27430;-76
2023/02/06 04:22:31;;;;;;;8.07;6.25;;;2.40;99.90;;;;;;486544;244;27458;-76
2023/02/06 04:24:32;;;;;;;8.13;6.57;;;2.40;99.90;;;;;;486497;244;27414;-77
2023/02/06 04:26:34;;;;;;;6.97;5.47;;;2.30;99.90;;;;;;486518;244;27461;-76
2023/02/06 04:28:35;;;;;;;7.35;6.18;;;2.20;99.90;;;;;;486560;244;27426;-76
2023/02/06 04:30:36;;;;;;;7.20;6.25;;;2.20;99.90;;;;;;486517;244;27960;-76
2023/02/06 04:32:37;;;;;;;6.20;5.60;;;2.20;99.90;;;;;;486507;244;27949;-76
2023/02/06 04:34:39;;;;;;;7.15;6.20;;;2.20;99.90;;;;;;486485;244;27858;-76
2023/02/06 04:36:40;;;;;;;6.25;5.32;;;2.10;99.90;;;;;;486545;244;27885;-76
2023/02/06 04:38:41;;;;;;;7.40;6.20;;;2.10;99.90;;;;;;486562;244;27553;-76
2023/02/06 04:40:42;;;;;;;9.77;6.90;;;2.10;99.90;;;;;;486535;244;27406;-76
2023/02/06 04:42:44;;;;;;;7.75;7.00;;;2.10;99.90;;;;;;486527;244;27441;-76
2023/02/06 04:44:45;;;;;;;9.82;6.50;;;2.10;99.90;;;;;;486470;244;27394;-75
2023/02/06 04:46:46;;;;;;;10.30;7.70;;;2.10;99.90;;;;;;486540;244;27438;-76
2023/02/06 04:48:47;;;;;;;10.55;7.18;;;2.10;99.90;;;;;;486561;244;27484;-76
2023/02/06 04:50:49;;;;;;;8.52;6.72;;;2.10;99.90;;;;;;486506;244;27458;-74
2023/02/06 04:52:50;;;;;;;7.45;5.80;;;2.10;99.90;;;;;;486496;244;27512;-75
2023/02/06 04:54:51;;;;;;;8.63;6.68;;;2.00;99.90;;;;;;486288;244;27442;-77
2023/02/06 04:56:52;;;;;;;9.20;7.05;;;2.00;99.90;;;;;;486515;244;27938;-76
2023/02/06 04:58:54;;;;;;;8.60;6.80;;;2.00;99.90;;;;;;486529;244;28032;-76
2023/02/06 05:00:55;;;;;;;13.55;8.38;;;2.10;99.90;;;;;;486529;244;27890;-76
2023/02/06 05:02:56;;;;;;;8.30;6.03;;;2.10;99.90;;;;;;486484;244;29004;-76
2023/02/06 05:04:57;;;;;;;10.50;6.30;;;2.10;99.90;;;;;;486481;244;27413;-76
2023/02/06 05:06:59;;;;;;;8.77;7.05;;;2.10;99.90;;;;;;486535;244;27402;-75
2023/02/06 05:09:00;;;;;;;8.13;6.40;;;2.10;99.90;;;;;;486540;244;27469;-76
2023/02/06 05:11:01;;;;;;;7.78;6.93;;;2.10;99.90;;;;;;486505;244;27446;-76
2023/02/06 05:13:02;;;;;;;6.53;5.60;;;2.10;99.90;;;;;;486488;244;27454;-76
2023/02/06 05:15:04;;;;;;;7.20;6.50;;;2.10;99.90;;;;;;486488;244;27413;-76
2023/02/06 05:17:05;;;;;;;9.70;6.50;;;2.10;99.90;;;;;;486509;244;27438;-76
2023/02/06 05:19:06;;;;;;;9.15;6.45;;;2.10;99.90;;;;;;486524;244;27518;-76
2023/02/06 05:21:07;;;;;;;9.25;6.50;;;2.10;99.90;;;;;;486513;244;27409;-76
2023/02/06 05:23:09;;;;;;;6.30;5.45;;;2.10;99.90;;;;;;486490;244;27900;-77
2023/02/06 05:25:10;;;;;;;8.60;6.60;;;2.10;99.90;;;;;;486487;244;28582;-76
2023/02/06 05:27:11;;;;;;;7.00;5.68;;;2.10;99.90;;;;;;486492;244;28027;-76
2023/02/06 05:29:12;;;;;;;8.13;6.22;;;2.10;99.90;;;;;;486520;244;27956;-76
2023/02/06 05:31:18;;;;;;;7.40;6.20;;;2.00;99.90;;;;;;486531;244;27399;-76
2023/02/06 05:33:15;;;;;;;7.32;6.45;;;2.00;99.90;;;;;;486144;244;27469;-76
2023/02/06 05:35:16;;;;;;;10.38;6.25;;;2.00;99.90;;;;;;486431;244;27403;-76
2023/02/06 05:37:17;;;;;;;6.25;5.50;;;2.10;99.90;;;;;;486463;244;27419;-76
2023/02/06 05:39:19;;;;;;;7.07;6.28;;;2.10;99.90;;;;;;486519;244;27438;-76
2023/02/06 05:41:20;;;;;;;10.32;7.00;;;2.10;99.90;;;;;;486542;244;27485;-75
2023/02/06 05:43:21;;;;;;;8.45;6.60;;;2.00;99.90;;;;;;486501;244;27564;-76
2023/02/06 05:45:22;;;;;;;9.90;7.97;;;1.90;99.90;;;;;;486512;242;27431;-76
2023/02/06 05:47:24;;;;;;;10.27;7.50;;;1.90;99.90;;;;;;486535;244;27449;-76
2023/02/06 05:49:25;;;;;;;9.77;7.22;;;1.90;99.90;;;;;;486531;244;27922;-76
2023/02/06 05:51:26;;;;;;;7.82;6.70;;;1.90;99.90;;;;;;486524;244;27981;-77
2023/02/06 05:53:27;;;;;;;9.10;6.80;;;1.90;99.90;;;;;;486497;244;28047;-76
2023/02/06 05:55:29;;;;;;;8.25;6.28;;;2.00;99.90;;;;;;486454;244;27858;-75
2023/02/06 05:57:30;;;;;;;9.18;7.40;;;2.00;99.90;;;;;;486538;244;27415;-75
2023/02/06 05:59:31;;;;;;;7.18;6.47;;;2.00;99.90;;;;;;486544;244;27454;-75
2023/02/06 06:01:32;;;;;;;8.70;6.90;;;1.90;99.90;;;;;;486522;244;27510;-76
2023/02/06 06:03:34;;;;;;;8.95;7.05;;;1.90;99.90;;;;;;486461;244;27469;-75
2023/02/06 06:05:35;;;;;;;9.38;7.22;;;1.90;99.90;;;;;;486472;244;27506;-76
2023/02/06 06:07:36;;;;;;;9.70;7.50;;;1.80;99.90;;;;;;486522;244;27450;-76
2023/02/06 06:09:37;;;;;;;9.75;7.62;;;1.90;99.90;;;;;;486538;244;27453;-77
2023/02/06 06:11:39;;;;;;;10.65;8.15;;;2.00;99.90;;;;;;486511;244;27474;-75
2023/02/06 06:13:40;;;;;;;9.60;7.47;;;2.00;99.90;;;;;;486505;244;27470;-77
2023/02/06 06:15:42;;;;;;;9.10;7.55;;;1.90;99.90;;;;;;486465;244;27448;-76
2023/02/06 06:17:42;;;;;;;10.23;8.05;;;1.90;99.90;;;;;;486518;244;27865;-77
2023/02/06 06:19:44;;;;;;;12.13;7.82;;;1.90;99.90;;;;;;486524;244;27913;-76
2023/02/06 06:21:45;;;;;;;9.98;8.05;;;2.00;99.90;;;;;;486490;244;28951;-76
2023/02/06 06:23:46;;;;;;;8.40;7.10;;;2.00;99.90;;;;;;486498;244;27433;-76
2023/02/06 06:25:47;;;;;;;13.40;9.00;;;2.00;99.90;;;;;;486491;244;27415;-76
2023/02/06 06:27:49;;;;;;;12.60;9.13;;;2.00;99.90;;;;;;486521;244;27495;-76
2023/02/06 06:29:50;;;;;;;14.43;8.20;;;2.00;99.90;;;;;;486528;244;27497;-76
2023/02/06 06:31:51;;;;;;;11.68;8.52;;;1.90;99.90;;;;;;486508;244;27468;-76
2023/02/06 06:33:53;;;;;;;9.52;7.28;;;1.80;99.90;;;;;;486491;244;27450;-77
2023/02/06 06:35:54;;;;;;;11.93;9.20;;;1.80;99.90;;;;;;486488;244;27514;-76
2023/02/06 06:37:55;;;;;;;12.57;9.20;;;1.70;99.90;;;;;;486529;244;27462;-76
2023/02/06 06:39:56;;;;;;;10.77;8.48;;;1.70;99.90;;;;;;486539;244;27937;-77
2023/02/06 06:41:57;;;;;;;11.00;8.95;;;1.70;99.90;;;;;;486532;244;28048;-76
2023/02/06 06:43:59;;;;;;;17.27;9.50;;;1.70;99.90;;;;;;486525;244;27634;-76
2023/02/06 06:46:00;;;;;;;11.18;8.68;;;1.60;99.90;;;;;;486524;244;27450;-76
2023/02/06 06:48:01;;;;;;;10.48;8.07;;;1.60;99.90;;;;;;486525;244;27531;-76
2023/02/06 06:50:02;;;;;;;11.20;8.35;;;1.60;99.90;;;;;;486540;244;27442;-75
2023/02/06 06:52:04;;;;;;;12.35;9.15;;;1.60;99.90;;;;;;486539;244;27434;-76
2023/02/06 06:54:05;;;;;;;10.75;8.80;;;1.60;99.90;;;;;;486541;244;27458;-76
2023/02/06 06:56:06;;;;;;;16.23;9.70;;;1.60;99.90;;;;;;486516;244;27510;-76
2023/02/06 06:58:07;;;;;;;13.62;9.35;;;1.60;99.90;;;;;;486569;244;27812;-76
2023/02/06 07:00:09;;;;;;;14.77;9.88;;;1.60;99.90;;;;;;486545;244;27958;-76
2023/02/06 07:02:10;;;;;;;13.00;9.05;;;1.70;99.90;;;;;;486532;244;28942;-76
2023/02/06 07:04:11;;;;;;;13.52;10.27;;;1.60;99.90;;;;;;486510;244;27429;-76
2023/02/06 07:06:12;;;;;;;12.43;9.43;;;1.60;99.90;;;;;;486543;244;27446;-76
2023/02/06 07:08:14;;;;;;;13.80;10.02;;;1.60;99.90;;;;;;486568;244;27414;-76
2023/02/06 07:10:15;;;;;;;14.30;9.88;;;1.60;99.90;;;;;;486571;244;27525;-77
2023/02/06 07:12:16;;;;;;;12.55;10.40;;;1.60;99.90;;;;;;486448;244;27409;-76
2023/02/06 07:14:18;;;;;;;12.93;9.80;;;1.60;99.90;;;;;;486530;244;27442;-76
2023/02/06 07:16:19;;;;;;;16.17;10.98;;;1.60;99.90;;;;;;486553;244;27975;-75
2023/02/06 07:18:20;;;;;;;13.77;9.65;;;1.60;99.90;;;;;;486582;244;27871;-76
2023/02/06 07:20:21;;;;;;;14.15;10.10;;;1.60;99.90;;;;;;486564;244;27936;-76
2023/02/06 07:22:24;;;;;;;12.63;9.95;;;1.60;99.90;;;;;;486521;244;27391;-76
2023/02/06 07:24:24;;;;;;;12.05;9.65;;;1.60;99.90;;;;;;486416;244;27529;-76
2023/02/06 07:26:25;;;;;;;14.85;10.48;;;1.60;99.90;;;;;;486495;244;27403;-76
2023/02/06 07:28:26;;;;;;;13.23;9.75;;;1.60;99.90;;;;;;486547;244;27433;-76
2023/02/06 07:30:27;;;;;;;17.62;10.32;;;1.70;99.90;;;;;;486548;244;27470;-77
2023/02/06 07:32:29;;;;;;;13.73;10.55;;;1.70;99.90;;;;;;486526;244;27391;-76
2023/02/06 07:34:30;;;;;;;11.15;9.65;;;1.70;99.90;;;;;;486487;244;27914;-76
2023/02/06 07:36:31;;;;;;;15.75;10.82;;;1.70;99.90;;;;;;486518;244;27940;-76
2023/02/06 07:38:32;;;;;;;15.23;10.35;;;1.80;99.90;;;;;;486559;244;27409;-76
2023/02/06 07:40:34;;;;;;;14.80;10.50;;;1.70;99.90;;;;;;486530;244;27439;-76
2023/02/06 07:42:35;;;;;;;16.62;13.43;;;1.70;99.90;;;;;;486529;244;27516;-76
2023/02/06 07:44:36;;;;;;;19.87;12.85;;;1.70;99.90;;;;;;486496;244;27464;-76
2023/02/06 07:46:38;;;;;;;16.65;12.40;;;1.60;99.90;;;;;;486501;244;27482;-76
2023/02/06 07:48:39;;;;;;;19.90;13.15;;;1.60;99.90;;;;;;486557;244;27517;-76
2023/02/06 07:50:40;;;;;;;15.98;11.77;;;1.60;99.90;;;;;;486561;244;27984;-77
2023/02/06 07:52:41;;;;;;;19.90;12.88;;;1.60;99.90;;;;;;486533;244;28127;-76
2023/02/06 07:54:43;;;;;;;20.45;14.77;;;1.60;99.90;;;;;;486509;243;27457;-76
2023/02/06 07:56:44;;;;;;;19.20;12.45;;;1.60;99.90;;;;;;486512;244;27483;-76
2023/02/06 07:58:47;;;;;;;21.12;13.18;;;1.50;99.90;;;;;;486525;244;27439;-76
2023/02/06 08:00:46;;;;;;;16.95;12.05;;;1.50;99.90;;;;;;486515;244;27426;-76
2023/02/06 08:02:48;;;;;;;16.12;11.38;;;1.50;99.90;;;;;;486527;244;27486;-76
2023/02/06 08:04:49;;;;;;;20.35;12.20;;;1.60;99.90;;;;;;486498;244;27922;-76
2023/02/06 08:06:50;;;;;;;18.15;13.65;;;1.50;99.90;;;;;;486519;244;28622;-76
2023/02/06 08:08:51;;;;;;;14.55;11.25;;;1.50;99.90;;;;;;486551;244;27446;-77
2023/02/06 08:10:53;;;;;;;16.17;11.88;;;1.50;99.90;;;;;;486560;244;27497;-78
2023/02/06 08:12:54;;;;;;;24.05;11.50;;;1.50;99.90;;;;;;486519;244;27473;-76
2023/02/06 08:14:55;;;;;;;15.75;10.05;;;1.50;99.90;;;;;;486517;244;27442;-77
2023/02/06 08:16:56;;;;;;;15.05;11.18;;;1.50;99.90;;;;;;486542;244;27517;-76
2023/02/06 08:18:58;;;;;;;15.38;11.90;;;1.50;99.90;;;;;;486543;244;27405;-76
2023/02/06 08:20:59;;;;;;;13.95;10.48;;;1.50;99.90;;;;;;486528;244;27933;-79
2023/02/06 08:23:00;;;;;;;16.58;11.68;;;1.50;99.90;;;;;;486512;244;27952;-77
2023/02/06 08:25:01;;;;;;;14.13;10.50;;;1.40;99.90;;;;;;486511;244;27439;-76
2023/02/06 08:27:03;;;;;;;13.95;11.25;;;1.60;99.90;;;;;;486545;244;27456;-76
2023/02/06 08:29:04;;;;;;;16.70;10.98;;;1.60;99.90;;;;;;486543;244;27399;-76
2023/02/06 08:31:05;;;;;;;15.00;11.27;;;1.50;99.90;;;;;;486556;244;27442;-77
2023/02/06 08:33:06;;;;;;;16.08;11.48;;;1.50;99.90;;;;;;486529;244;27410;-76
2023/02/06 08:35:08;;;;;;;13.60;10.43;;;1.60;99.90;;;;;;486537;244;27438;-76
2023/02/06 08:37:09;;;;;;;13.77;10.40;;;1.60;99.90;;;;;;486584;244;28138;-77
2023/02/06 08:39:10;;;;;;;17.05;11.45;;;1.60;99.90;;;;;;486576;244;28006;-76
2023/02/06 08:41:11;;;;;;;15.73;11.63;;;1.60;99.90;;;;;;486563;244;27516;-76
2023/02/06 08:43:13;;;;;;;17.45;12.13;;;1.60;99.90;;;;;;486530;244;27409;-76
2023/02/06 08:45:14;;;;;;;14.13;10.85;;;1.60;99.90;;;;;;486472;244;27521;-76
2023/02/06 08:47:15;;;;;;;14.75;11.25;;;1.60;99.90;;;;;;486551;244;27793;-76
2023/02/06 08:49:16;;;;;;;13.43;10.40;;;1.70;99.90;;;;;;486526;244;27411;-76
2023/02/06 08:51:19;;;;;;;15.05;10.82;;;1.70;99.90;;;;;;486509;244;27907;-76
2023/02/06 08:53:19;;;;;;;15.02;10.73;;;1.80;99.90;;;;;;486501;244;27846;-76
2023/02/06 08:55:20;;;;;;;15.07;11.15;;;1.80;99.90;;;;;;486533;244;27543;-76
2023/02/06 08:57:22;;;;;;;15.05;11.15;;;1.80;99.90;;;;;;486545;244;27537;-75
2023/02/06 08:59:23;;;;;;;15.32;11.57;;;1.70;99.90;;;;;;486501;244;27402;-76
2023/02/06 09:01:24;;;;;;;19.80;11.50;;;1.70;99.90;;;;;;486508;244;27438;-76
2023/02/06 09:03:26;;;;;;;18.02;11.85;;;1.70;99.90;;;;;;486493;244;27529;-77
2023/02/06 09:05:27;;;;;;;16.85;11.63;;;1.70;99.90;;;;;;486542;244;28070;-76
2023/02/06 09:07:28;;;;;;;13.82;10.73;;;1.70;99.90;;;;;;486551;244;28090;-76
2023/02/06 09:09:29;;;;;;;12.43;10.57;;;1.80;99.90;;;;;;486507;244;27521;-76
2023/02/06 09:11:30;;;;;;;14.35;11.20;;;2.00;99.90;;;;;;486512;244;27569;-76
2023/02/06 09:13:32;;;;;;;10.63;9.30;;;2.00;99.90;;;;;;486490;244;27531;-76
2023/02/06 09:15:33;;;;;;;8.80;7.70;;;2.10;99.90;;;;;;486533;244;27525;-76
2023/02/06 09:17:34;;;;;;;10.43;8.75;;;2.00;99.90;;;;;;486538;244;27461;-78
2023/02/06 09:19:35;;;;;;;13.60;8.65;;;2.00;99.90;;;;;;486512;244;27411;-76
2023/02/06 09:21:37;;;;;;;10.77;7.93;;;2.00;99.90;;;;;;486512;244;27465;-77
2023/02/06 09:23:38;;;;;;;12.65;8.73;;;2.00;99.90;;;;;;486494;244;27922;-76
2023/02/06 09:25:39;;;;;;;10.32;8.32;;;2.10;99.90;;;;;;486522;244;27891;-76
2023/02/06 09:27:45;;;;;;;8.68;7.03;;;2.10;99.90;;;;;;486529;244;27913;-77
2023/02/06 09:29:42;;;;;;;9.77;8.10;;;2.00;99.90;;;;;;486193;244;27446;-75
2023/02/06 09:31:43;;;;;;;10.65;8.05;;;2.00;99.90;;;;;;486498;244;27446;-76
2023/02/06 09:33:44;;;;;;;10.20;8.23;;;2.10;99.90;;;;;;486502;244;27395;-77
2023/02/06 09:35:45;;;;;;;8.50;7.28;;;2.10;99.90;;;;;;486518;244;27433;-76
2023/02/06 09:37:47;;;;;;;8.80;7.55;;;2.00;99.90;;;;;;486553;244;27545;-77
2023/02/06 09:39:48;;;;;;;9.27;7.45;;;2.00;99.90;;;;;;486507;244;27426;-76
2023/02/06 09:41:49;;;;;;;8.52;7.05;;;2.00;99.90;;;;;;486483;244;27477;-74
2023/02/06 09:43:50;;;;;;;12.37;8.10;;;2.00;99.90;;;;;;486502;244;27399;-76
2023/02/06 09:45:52;;;;;;;9.77;7.80;;;2.10;99.90;;;;;;486517;244;27457;-76
2023/02/06 09:47:53;;;;;;;9.15;6.95;;;2.20;99.90;;;;;;486525;244;27934;-76
2023/02/06 09:49:54;;;;;;;9.90;6.78;;;1.90;99.90;;;;;;486523;244;28009;-77
2023/02/06 09:51:55;;;;;;;10.18;7.25;;;2.00;99.90;;;;;;486512;244;28018;-76
2023/02/06 09:53:57;;;;;;;8.05;6.03;;;2.10;99.90;;;;;;486532;244;27387;-76
2023/02/06 09:55:58;;;;;;;10.38;7.75;;;2.10;99.90;;;;;;486498;244;27418;-77
2023/02/06 09:57:59;;;;;;;8.00;7.15;;;2.00;99.90;;;;;;486558;244;27546;-77
2023/02/06 10:00:00;;;;;;;9.65;6.82;;;2.10;99.90;;;;;;486569;244;27417;-76
2023/02/06 10:02:02;;;;;;;9.90;6.72;;;2.00;99.90;;;;;;486540;244;27449;-77
2023/02/06 10:04:08;;;;;;;8.25;6.35;;;2.10;99.90;;;;;;486513;244;27502;-76
2023/02/06 10:06:04;;;;;;;6.57;5.97;;;2.30;99.90;;;;;;485894;244;27478;-75
2023/02/06 10:08:05;;;;;;;6.75;5.95;;;2.20;99.90;;;;;;486577;244;27772;-77
2023/02/06 10:10:07;;;;;;;6.72;5.60;;;2.10;99.90;;;;;;486519;244;27490;-76
2023/02/06 10:12:08;;;;;;;8.95;6.78;;;2.10;99.90;;;;;;486487;244;27446;-77
2023/02/06 10:14:09;;;;;;;8.50;6.57;;;2.10;99.90;;;;;;486364;244;27862;-76
2023/02/06 10:16:10;;;;;;;8.93;6.68;;;2.10;99.90;;;;;;486375;244;27915;-77
2023/02/06 10:18:13;;;;;;;7.75;6.57;;;2.20;99.90;;;;;;486531;244;29167;-78
2023/02/06 10:20:13;;;;;;;6.97;6.20;;;2.10;99.90;;;;;;486451;244;27906;-76
2023/02/06 10:22:14;;;;;;;9.00;7.18;;;2.00;99.90;;;;;;486507;244;27450;-76
2023/02/06 10:24:15;;;;;;;6.82;6.15;;;2.20;99.90;;;;;;486489;244;27445;-76
2023/02/06 10:26:17;;;;;;;10.68;6.40;;;2.40;99.90;;;;;;486467;244;27531;-77
2023/02/06 10:28:18;;;;;;;7.00;5.50;;;2.30;99.90;;;;;;486547;244;27768;-76
2023/02/06 10:30:19;;;;;;;8.50;6.55;;;2.20;99.90;;;;;;486532;244;27417;-76
2023/02/06 10:32:20;;;;;;;15.38;6.57;;;2.20;99.90;;;;;;486526;244;28028;-77
2023/02/06 10:34:22;;;;;;;8.02;6.55;;;2.20;99.90;;;;;;486497;244;28013;-76